createdAt,value
2023-01-26T00:01:35.663Z,0.90
2023-01-26T00:04:03.126Z,0.90
2023-01-26T00:06:30.466Z,1.00
2023-01-26T00:08:57.747Z,1.00
2023-01-26T00:11:27.025Z,1.00
2023-01-26T00:13:55.924Z,0.90
2023-01-26T00:16:23.845Z,1.00
2023-01-26T00:18:51.239Z,1.00
2023-01-26T00:21:21.106Z,1.00
2023-01-26T00:23:49.552Z,1.00
2023-01-26T00:26:22.504Z,1.00
2023-01-26T00:28:50.079Z,1.10
2023-01-26T00:31:22.555Z,1.10
2023-01-26T00:33:51.478Z,1.10
2023-01-26T00:36:19.177Z,1.00
2023-01-26T00:38:46.951Z,1.10
2023-01-26T00:41:34.523Z,1.00
2023-01-26T00:44:02.384Z,1.00
2023-01-26T00:46:29.790Z,1.00
2023-01-26T00:48:57.295Z,1.00
2023-01-26T00:51:24.626Z,1.00
2023-01-26T00:53:51.885Z,1.00
2023-01-26T00:56:19.570Z,1.00
2023-01-26T00:58:47.031Z,1.00
2023-01-26T01:01:14.325Z,0.90
2023-01-26T01:03:42.979Z,0.90
2023-01-26T01:06:11.493Z,0.90
2023-01-26T01:08:38.870Z,0.90
2023-01-26T01:11:09.648Z,0.80
2023-01-26T01:13:37.508Z,0.80
2023-01-26T01:16:10.676Z,0.80
2023-01-26T01:18:38.527Z,0.80
2023-01-26T01:21:08.033Z,0.80
2023-01-26T01:23:35.646Z,0.70
2023-01-26T01:26:03.729Z,0.60
2023-01-26T01:28:31.409Z,0.60
2023-01-26T01:30:58.766Z,0.60
2023-01-26T01:33:26.189Z,0.60
2023-01-26T01:35:58.235Z,0.60
2023-01-26T01:38:26.538Z,0.70
2023-01-26T01:40:55.128Z,0.60
2023-01-26T01:43:23.654Z,0.70
2023-01-26T01:45:52.346Z,0.70
2023-01-26T01:48:49.175Z,0.60
2023-01-26T01:51:27.651Z,0.60
2023-01-26T01:54:00.246Z,0.50
2023-01-26T01:56:29.096Z,0.40
2023-01-26T01:58:59.979Z,0.40
2023-01-26T02:01:28.102Z,0.40
2023-01-26T02:04:01.646Z,0.40
2023-01-26T02:06:55.397Z,0.50
2023-01-26T02:09:50.468Z,0.40
2023-01-26T02:12:21.005Z,0.40
2023-01-26T02:14:52.158Z,0.50
2023-01-26T02:17:19.648Z,0.50
2023-01-26T02:20:13.300Z,0.50
2023-01-26T02:22:59.121Z,0.40
2023-01-26T02:25:49.964Z,0.40
2023-01-26T02:28:18.767Z,0.40
2023-01-26T02:30:46.592Z,0.40
2023-01-26T02:33:33.324Z,0.20
2023-01-26T02:36:04.797Z,0.30
2023-01-26T02:39:00.282Z,0.30
2023-01-26T02:41:46.303Z,0.30
2023-01-26T02:44:15.356Z,0.30
2023-01-26T02:46:42.830Z,0.30
2023-01-26T02:49:28.572Z,0.30
2023-01-26T02:51:55.938Z,0.30
2023-01-26T02:54:41.617Z,0.30
2023-01-26T02:57:08.970Z,0.30
2023-01-26T02:59:36.250Z,0.40
2023-01-26T03:02:03.633Z,0.40
2023-01-26T03:04:30.880Z,0.30
2023-01-26T03:06:58.305Z,0.30
2023-01-26T03:09:25.573Z,0.20
2023-01-26T03:11:53.069Z,0.20
2023-01-26T03:14:20.536Z,0.30
2023-01-26T03:16:49.642Z,0.30
2023-01-26T03:19:35.341Z,0.30
2023-01-26T03:22:29.012Z,0.30
2023-01-26T03:25:15.483Z,0.30
2023-01-26T03:27:46.799Z,0.30
2023-01-26T03:30:17.714Z,0.20
2023-01-26T03:32:46.479Z,0.20
2023-01-26T03:35:16.244Z,0.20
2023-01-26T03:37:44.836Z,0.30
2023-01-26T03:40:38.988Z,0.30
2023-01-26T03:43:28.163Z,0.30
2023-01-26T03:46:14.308Z,0.30
2023-01-26T03:48:59.933Z,0.30
2023-01-26T03:51:45.545Z,0.30
2023-01-26T03:54:31.507Z,0.40
2023-01-26T03:56:59.744Z,0.40
2023-01-26T03:59:39.405Z,0.40
2023-01-26T04:02:30.939Z,0.50
2023-01-26T04:05:17.575Z,0.40
2023-01-26T04:08:06.804Z,0.50
2023-01-26T04:10:34.282Z,0.40
2023-01-26T04:13:22.394Z,0.30
2023-01-26T04:16:13.605Z,0.30
2023-01-26T04:18:59.952Z,0.30
2023-01-26T04:21:31.937Z,0.40
2023-01-26T04:24:02.978Z,0.30
2023-01-26T04:26:37.049Z,0.30
2023-01-26T04:29:12.914Z,0.20
2023-01-26T04:31:42.629Z,0.20
2023-01-26T04:34:15.160Z,0.20
2023-01-26T04:36:43.061Z,0.20
2023-01-26T04:39:10.705Z,0.30
2023-01-26T04:41:42.515Z,0.30
2023-01-26T04:44:12.800Z,0.40
2023-01-26T04:46:40.442Z,0.30
2023-01-26T04:49:07.789Z,0.40
2023-01-26T04:51:35.395Z,0.40
2023-01-26T04:54:03.245Z,0.40
2023-01-26T04:56:35.199Z,0.40
2023-01-26T04:59:06.563Z,0.40
2023-01-26T05:01:36.009Z,0.30
2023-01-26T05:04:07.247Z,0.40
2023-01-26T05:06:36.215Z,0.40
2023-01-26T05:09:04.132Z,0.30
2023-01-26T05:11:33.283Z,0.30
2023-01-26T05:14:16.096Z,0.30
2023-01-26T05:16:59.057Z,0.20
2023-01-26T05:19:40.001Z,0.20
2023-01-26T05:22:19.437Z,0.20
2023-01-26T05:25:05.881Z,0.20
2023-01-26T05:27:53.030Z,0.20
2023-01-26T05:30:21.225Z,0.20
2023-01-26T05:32:50.561Z,0.10
2023-01-26T05:35:18.003Z,0.20
2023-01-26T05:37:45.987Z,0.20
2023-01-26T05:40:14.483Z,0.20
2023-01-26T05:42:43.340Z,0.20
2023-01-26T05:45:23.805Z,0.20
2023-01-26T05:47:53.660Z,0.20
2023-01-26T05:50:21.111Z,0.20
2023-01-26T05:53:08.402Z,0.20
2023-01-26T05:55:37.504Z,0.20
2023-01-26T05:58:04.916Z,0.10
2023-01-26T06:00:32.313Z,0.20
2023-01-26T06:03:06.915Z,0.20
2023-01-26T06:05:34.286Z,0.20
2023-01-26T06:08:07.574Z,0.20
2023-01-26T06:10:49.052Z,0.20
2023-01-26T06:13:39.265Z,0.20
2023-01-26T06:16:17.646Z,0.20
2023-01-26T06:18:49.320Z,0.20
2023-01-26T06:21:17.081Z,0.20
2023-01-26T06:23:44.567Z,0.30
2023-01-26T06:26:12.623Z,0.30
2023-01-26T06:28:40.039Z,0.30
2023-01-26T06:31:09.125Z,0.20
2023-01-26T06:33:38.663Z,0.20
2023-01-26T06:36:13.374Z,0.20
2023-01-26T06:38:46.822Z,0.30
2023-01-26T06:41:14.496Z,0.30
2023-01-26T06:43:46.760Z,0.30
2023-01-26T06:46:15.331Z,0.30
2023-01-26T06:48:43.885Z,0.30
2023-01-26T06:51:18.281Z,0.30
2023-01-26T06:53:55.856Z,0.30
2023-01-26T06:56:52.618Z,0.30
2023-01-26T06:59:40.835Z,0.30
2023-01-26T07:02:19.550Z,0.20
2023-01-26T07:04:48.062Z,0.10
2023-01-26T07:07:15.483Z,0.20
2023-01-26T07:09:42.736Z,0.20
2023-01-26T07:12:10.040Z,0.20
2023-01-26T07:14:37.409Z,0.20
2023-01-26T07:17:04.719Z,0.30
2023-01-26T07:19:33.412Z,0.30
2023-01-26T07:22:01.567Z,0.30
2023-01-26T07:24:29.416Z,0.30
2023-01-26T07:26:57.064Z,0.40
2023-01-26T07:29:24.520Z,0.30
2023-01-26T07:31:52.181Z,0.30
2023-01-26T07:34:19.847Z,0.30
2023-01-26T07:36:47.041Z,0.30
2023-01-26T07:39:14.327Z,0.30
2023-01-26T07:41:41.591Z,0.40
2023-01-26T07:44:25.891Z,0.30
2023-01-26T07:46:54.721Z,0.30
2023-01-26T07:49:21.891Z,0.30
2023-01-26T07:51:49.166Z,0.30
2023-01-26T07:54:16.445Z,0.30
2023-01-26T07:56:44.908Z,0.30
2023-01-26T07:59:12.901Z,0.30
2023-01-26T08:01:40.137Z,0.40
2023-01-26T08:04:07.803Z,0.40
2023-01-26T08:06:35.157Z,0.40
2023-01-26T08:09:02.710Z,0.40
2023-01-26T08:11:29.970Z,0.30
2023-01-26T08:13:57.184Z,0.40
2023-01-26T08:16:24.455Z,0.40
2023-01-26T08:18:51.871Z,0.30
2023-01-26T08:21:19.951Z,0.30
2023-01-26T08:23:51.293Z,0.40
2023-01-26T08:26:20.194Z,0.40
2023-01-26T08:28:48.288Z,0.40
2023-01-26T08:31:20.094Z,0.50
2023-01-26T08:33:50.980Z,0.50
2023-01-26T08:36:22.087Z,0.60
2023-01-26T08:38:50.518Z,0.70
2023-01-26T08:41:18.228Z,0.70
2023-01-26T08:43:45.674Z,0.70
2023-01-26T08:46:13.076Z,0.70
2023-01-26T08:48:40.593Z,0.70
2023-01-26T08:51:08.882Z,0.70
2023-01-26T08:53:37.463Z,0.70
2023-01-26T08:56:06.926Z,0.70
2023-01-26T08:58:34.989Z,0.70
2023-01-26T09:01:20.195Z,0.70
2023-01-26T09:03:47.469Z,0.80
2023-01-26T09:06:16.023Z,0.80
2023-01-26T09:08:43.488Z,0.80
2023-01-26T09:11:12.268Z,0.70
2023-01-26T09:13:40.248Z,0.70
2023-01-26T09:16:14.784Z,0.70
2023-01-26T09:18:42.020Z,0.70
2023-01-26T09:21:09.913Z,0.70
2023-01-26T09:23:38.803Z,0.70
2023-01-26T09:26:06.173Z,0.70
2023-01-26T09:28:33.364Z,0.70
2023-01-26T09:31:05.316Z,0.80
2023-01-26T09:33:33.241Z,0.80
2023-01-26T09:36:08.843Z,0.80
2023-01-26T09:38:36.865Z,0.80
2023-01-26T09:41:34.102Z,0.90
2023-01-26T09:44:07.969Z,0.80
2023-01-26T09:46:55.746Z,0.80
2023-01-26T09:49:58.258Z,0.80
2023-01-26T09:53:04.884Z,0.80
2023-01-26T09:55:32.217Z,0.80
2023-01-26T09:58:02.255Z,0.80
2023-01-26T10:00:38.015Z,0.80
2023-01-26T10:03:31.361Z,0.80
2023-01-26T10:06:07.897Z,0.80
2023-01-26T10:08:56.199Z,0.80
2023-01-26T10:11:29.156Z,0.60
2023-01-26T10:14:05.420Z,0.60
2023-01-26T10:16:34.214Z,0.60
2023-01-26T10:19:31.575Z,0.50
2023-01-26T10:22:05.338Z,0.50
2023-01-26T10:24:33.711Z,0.50
2023-01-26T10:27:01.315Z,0.50
2023-01-26T10:29:28.582Z,0.50
2023-01-26T10:31:55.867Z,0.40
2023-01-26T10:34:26.289Z,0.40
2023-01-26T10:37:02.153Z,0.40
2023-01-26T10:39:29.417Z,0.60
2023-01-26T10:42:02.272Z,0.60
2023-01-26T10:44:39.560Z,0.50
2023-01-26T10:47:18.039Z,0.50
2023-01-26T10:49:45.336Z,0.60
2023-01-26T10:52:25.547Z,0.60
2023-01-26T10:55:13.635Z,0.60
2023-01-26T10:57:42.582Z,0.50
2023-01-26T11:00:22.078Z,0.40
2023-01-26T11:02:52.051Z,0.40
2023-01-26T11:05:25.670Z,0.40
2023-01-26T11:08:03.044Z,0.40
2023-01-26T11:10:34.757Z,0.40
2023-01-26T11:13:12.416Z,0.40
2023-01-26T11:15:41.885Z,0.40
2023-01-26T11:18:35.144Z,0.40
2023-01-26T11:21:17.162Z,0.40
2023-01-26T11:23:48.356Z,0.40
2023-01-26T11:26:31.118Z,0.40
2023-01-26T11:29:07.697Z,0.30
2023-01-26T11:31:47.086Z,0.40
2023-01-26T11:34:32.745Z,0.30
2023-01-26T11:37:24.671Z,0.30
2023-01-26T11:39:54.597Z,0.30
2023-01-26T11:43:05.387Z,0.30
2023-01-26T11:46:10.357Z,0.30
2023-01-26T11:48:50.002Z,0.20
2023-01-26T11:51:44.240Z,0.10
2023-01-26T11:54:23.382Z,0.10
2023-01-26T11:56:59.905Z,0.10
2023-01-26T11:59:38.919Z,0.10
2023-01-26T12:02:18.553Z,0.20
2023-01-26T12:04:47.013Z,0.20
2023-01-26T12:07:51.399Z,0.30
2023-01-26T12:10:28.009Z,0.20
2023-01-26T12:13:14.395Z,0.30
2023-01-26T12:15:47.556Z,0.30
2023-01-26T12:18:27.915Z,0.40
2023-01-26T12:21:11.108Z,0.50
2023-01-26T12:23:47.489Z,0.40
2023-01-26T12:26:21.450Z,0.30
2023-01-26T12:29:09.399Z,0.40
2023-01-26T12:31:48.608Z,0.40
2023-01-26T12:34:16.386Z,0.40
2023-01-26T12:37:26.724Z,0.30
2023-01-26T12:40:07.604Z,0.30
2023-01-26T12:42:49.201Z,0.40
2023-01-26T12:45:24.331Z,0.50
2023-01-26T12:48:14.987Z,0.50
2023-01-26T12:50:52.115Z,0.40
2023-01-26T12:53:32.297Z,0.40
2023-01-26T12:56:20.435Z,0.40
2023-01-26T12:58:50.310Z,0.50
2023-01-26T13:01:20.591Z,0.50
2023-01-26T13:04:01.201Z,0.60
2023-01-26T13:06:29.696Z,0.50
2023-01-26T13:09:00.661Z,0.50
2023-01-26T13:11:55.151Z,0.50
2023-01-26T13:14:27.940Z,0.50
2023-01-26T13:16:55.896Z,0.50
2023-01-26T13:19:41.838Z,0.50
2023-01-26T13:22:24.427Z,0.50
2023-01-26T13:24:58.513Z,0.40
2023-01-26T13:27:39.666Z,0.40
2023-01-26T13:30:22.303Z,0.50
2023-01-26T13:32:49.666Z,0.40
2023-01-26T13:35:23.442Z,0.40
2023-01-26T13:37:53.403Z,0.40
2023-01-26T13:40:34.792Z,0.50
2023-01-26T13:43:27.331Z,0.50
2023-01-26T13:46:19.040Z,0.60
2023-01-26T13:48:51.973Z,0.60
2023-01-26T13:51:23.579Z,0.50
2023-01-26T13:53:55.595Z,0.20
2023-01-26T13:56:29.003Z,0.20
2023-01-26T13:59:05.985Z,0.30
2023-01-26T14:01:34.028Z,0.30
2023-01-26T14:04:06.790Z,0.30
2023-01-26T14:06:37.500Z,0.20
2023-01-26T14:09:06.737Z,0.20
2023-01-26T14:11:34.695Z,0.20
2023-01-26T14:14:02.779Z,0.20
2023-01-26T14:16:36.379Z,0.20
2023-01-26T14:19:23.764Z,0.20
2023-01-26T14:21:57.496Z,0.20
2023-01-26T14:24:33.751Z,0.20
2023-01-26T14:27:05.721Z,0.10
2023-01-26T14:29:38.881Z,0.10
2023-01-26T14:32:16.306Z,0.10
2023-01-26T14:34:55.268Z,0.10
2023-01-26T14:37:22.932Z,0.10
2023-01-26T14:39:50.191Z,0.10
2023-01-26T14:42:19.669Z,0.00
2023-01-26T14:44:47.411Z,0.00
2023-01-26T14:47:32.754Z,-0.10
2023-01-26T14:50:27.666Z,0.00
2023-01-26T14:52:55.471Z,0.00
2023-01-26T14:55:29.279Z,0.00
2023-01-26T14:57:58.435Z,0.00
2023-01-26T15:00:35.804Z,0.00
2023-01-26T15:03:22.256Z,0.10
2023-01-26T15:05:49.612Z,0.00
2023-01-26T15:08:25.008Z,0.10
2023-01-26T15:11:16.232Z,0.10
2023-01-26T15:13:48.659Z,0.10
2023-01-26T15:16:18.711Z,0.10
2023-01-26T15:18:47.836Z,0.10
2023-01-26T15:21:19.522Z,0.10
2023-01-26T15:23:51.487Z,0.10
2023-01-26T15:26:21.890Z,0.10
2023-01-26T15:28:52.860Z,0.10
2023-01-26T15:31:25.060Z,0.10
2023-01-26T15:33:54.857Z,0.10
2023-01-26T15:36:43.290Z,0.10
2023-01-26T15:39:13.481Z,0.20
2023-01-26T15:41:42.383Z,0.10
2023-01-26T15:44:18.267Z,0.00
2023-01-26T15:46:46.356Z,0.10
2023-01-26T15:49:14.330Z,0.00
2023-01-26T15:51:41.751Z,0.00
2023-01-26T15:54:11.340Z,0.00
2023-01-26T15:56:38.536Z,-0.10
2023-01-26T15:59:06.104Z,-0.10
2023-01-26T16:01:33.653Z,-0.10
2023-01-26T16:04:00.997Z,0.00
2023-01-26T16:06:33.625Z,-0.10
2023-01-26T16:09:01.552Z,-0.10
2023-01-26T16:11:34.017Z,-0.10
2023-01-26T16:14:04.308Z,-0.10
2023-01-26T16:16:32.870Z,-0.10
2023-01-26T16:19:00.275Z,-0.10
2023-01-26T16:21:34.417Z,0.00
2023-01-26T16:24:02.494Z,-0.10
2023-01-26T16:26:30.476Z,-0.10
2023-01-26T16:28:58.460Z,0.00
2023-01-26T16:31:29.454Z,0.00
2023-01-26T16:33:56.988Z,0.00
2023-01-26T16:36:24.713Z,0.00
2023-01-26T16:38:52.034Z,0.00
2023-01-26T16:41:23.272Z,0.00
2023-01-26T16:43:50.509Z,0.00
2023-01-26T16:46:17.811Z,0.10
2023-01-26T16:48:45.160Z,0.20
2023-01-26T16:51:17.108Z,0.20
2023-01-26T16:53:44.959Z,0.10
2023-01-26T16:56:13.523Z,0.10
2023-01-26T16:58:41.219Z,0.10
2023-01-26T17:01:24.314Z,0.20
2023-01-26T17:03:52.026Z,0.10
2023-01-26T17:06:19.951Z,0.10
2023-01-26T17:08:47.691Z,0.10
2023-01-26T17:11:19.237Z,0.00
2023-01-26T17:13:47.234Z,0.10
2023-01-26T17:16:22.323Z,0.10
2023-01-26T17:18:49.894Z,0.00
2023-01-26T17:21:19.331Z,0.00
2023-01-26T17:23:51.748Z,0.10
2023-01-26T17:26:20.372Z,0.00
2023-01-26T17:28:49.466Z,0.00
2023-01-26T17:31:19.524Z,0.00
2023-01-26T17:33:48.640Z,0.00
2023-01-26T17:36:17.728Z,-0.10
2023-01-26T17:38:44.983Z,-0.10
2023-01-26T17:41:12.240Z,-0.10
2023-01-26T17:43:39.467Z,0.00
2023-01-26T17:46:18.373Z,0.00
2023-01-26T17:48:46.391Z,0.00
2023-01-26T17:51:16.906Z,0.00
2023-01-26T17:53:46.295Z,0.00
2023-01-26T17:56:16.157Z,0.00
2023-01-26T17:58:46.771Z,0.00
2023-01-26T18:01:14.067Z,-0.10
2023-01-26T18:03:42.502Z,-0.10
2023-01-26T18:06:10.536Z,0.00
2023-01-26T18:08:39.212Z,0.00
2023-01-26T18:11:09.969Z,0.00
2023-01-26T18:13:37.197Z,0.00
2023-01-26T18:16:09.129Z,0.00
2023-01-26T18:18:36.740Z,0.00
2023-01-26T18:21:22.780Z,0.00
2023-01-26T18:23:52.138Z,0.00
2023-01-26T18:26:21.592Z,0.00
2023-01-26T18:28:49.158Z,0.00
2023-01-26T18:31:19.840Z,0.00
2023-01-26T18:33:47.472Z,0.00
2023-01-26T18:36:16.540Z,0.00
2023-01-26T18:38:50.048Z,0.00
2023-01-26T18:41:17.900Z,0.00
2023-01-26T18:43:45.406Z,0.00
2023-01-26T18:46:12.743Z,0.10
2023-01-26T18:48:40.022Z,0.10
2023-01-26T18:51:08.823Z,0.10
2023-01-26T18:53:40.497Z,0.00
2023-01-26T18:56:10.151Z,0.00
2023-01-26T18:58:38.955Z,0.00
2023-01-26T19:01:12.515Z,0.10
2023-01-26T19:03:42.262Z,0.00
2023-01-26T19:06:10.139Z,0.00
2023-01-26T19:08:37.361Z,0.00
2023-01-26T19:11:08.791Z,0.00
2023-01-26T19:13:36.251Z,0.00
2023-01-26T19:16:03.684Z,0.00
2023-01-26T19:18:30.939Z,0.10
2023-01-26T19:20:59.494Z,0.10
2023-01-26T19:23:27.518Z,0.20
2023-01-26T19:25:55.155Z,0.20
2023-01-26T19:28:22.616Z,0.10
2023-01-26T19:30:50.033Z,0.10
2023-01-26T19:33:28.128Z,0.00
2023-01-26T19:35:56.477Z,0.00
2023-01-26T19:38:24.329Z,-0.10
2023-01-26T19:40:52.410Z,-0.20
2023-01-26T19:43:20.489Z,-0.10
2023-01-26T19:45:49.850Z,-0.10
2023-01-26T19:48:17.173Z,-0.10
2023-01-26T19:50:44.445Z,-0.20
2023-01-26T19:53:11.839Z,-0.10
2023-01-26T19:55:39.145Z,-0.10
2023-01-26T19:58:06.490Z,-0.10
2023-01-26T20:00:33.867Z,-0.20
2023-01-26T20:03:01.107Z,-0.20
2023-01-26T20:05:28.325Z,-0.10
2023-01-26T20:07:55.651Z,-0.20
2023-01-26T20:10:22.881Z,-0.20
2023-01-26T20:12:50.150Z,-0.10
2023-01-26T20:15:17.401Z,-0.20
2023-01-26T20:17:45.984Z,-0.10
2023-01-26T20:20:13.813Z,-0.10
2023-01-26T20:22:41.039Z,-0.10
2023-01-26T20:25:12.593Z,-0.10
2023-01-26T20:27:40.028Z,-0.10
2023-01-26T20:30:07.932Z,0.00
2023-01-26T20:32:35.206Z,0.00
2023-01-26T20:35:02.911Z,-0.10
2023-01-26T20:37:30.293Z,-0.10
2023-01-26T20:39:57.974Z,-0.10
2023-01-26T20:42:27.594Z,-0.20
2023-01-26T20:44:58.140Z,-0.20
2023-01-26T20:47:26.409Z,-0.20
2023-01-26T20:49:56.296Z,-0.20
2023-01-26T20:52:25.192Z,-0.20
2023-01-26T20:54:55.133Z,-0.20
2023-01-26T20:57:22.591Z,-0.20
2023-01-26T20:59:49.885Z,-0.10
2023-01-26T21:02:17.289Z,-0.10
2023-01-26T21:04:47.689Z,-0.10
2023-01-26T21:07:15.142Z,-0.10
2023-01-26T21:09:42.628Z,-0.10
2023-01-26T21:12:09.941Z,-0.20
2023-01-26T21:14:37.271Z,-0.20
2023-01-26T21:17:04.647Z,-0.20
2023-01-26T21:19:31.964Z,-0.30
2023-01-26T21:21:59.663Z,-0.30
2023-01-26T21:24:29.196Z,-0.30
2023-01-26T21:26:56.957Z,-0.30
2023-01-26T21:29:24.434Z,-0.30
2023-01-26T21:31:52.693Z,-0.30
2023-01-26T21:34:20.002Z,-0.30
2023-01-26T21:36:53.433Z,-0.40
2023-01-26T21:39:22.184Z,-0.40
2023-01-26T21:41:56.064Z,-0.40
2023-01-26T21:44:24.741Z,-0.30
2023-01-26T21:46:55.000Z,-0.40
2023-01-26T21:49:24.218Z,-0.40
2023-01-26T21:52:11.271Z,-0.40
2023-01-26T21:54:39.048Z,-0.50
2023-01-26T21:57:35.063Z,-0.40
2023-01-26T22:00:03.341Z,-0.50
2023-01-26T22:02:32.028Z,-0.50
2023-01-26T22:04:59.452Z,-0.40
2023-01-26T22:07:28.627Z,-0.40
2023-01-26T22:09:56.157Z,-0.50
2023-01-26T22:12:23.542Z,-0.50
2023-01-26T22:14:51.811Z,-0.60
2023-01-26T22:17:19.072Z,-0.60
2023-01-26T22:19:47.271Z,-0.60
2023-01-26T22:22:14.585Z,-0.60
2023-01-26T22:24:41.884Z,-0.60
2023-01-26T22:27:09.403Z,-0.60
2023-01-26T22:29:36.881Z,-0.60
2023-01-26T22:32:04.536Z,-0.70
2023-01-26T22:34:32.821Z,-0.70
2023-01-26T22:37:00.052Z,-0.70
2023-01-26T22:39:27.380Z,-0.70
2023-01-26T22:41:54.635Z,-0.70
2023-01-26T22:44:22.400Z,-0.60
2023-01-26T22:46:49.691Z,-0.60
2023-01-26T22:49:16.943Z,-0.60
2023-01-26T22:51:44.232Z,-0.60
2023-01-26T22:54:11.454Z,-0.60
2023-01-26T22:56:38.755Z,-0.60
2023-01-26T22:59:05.943Z,-0.60
2023-01-26T23:01:33.605Z,-0.60
2023-01-26T23:04:01.613Z,-0.60
2023-01-26T23:06:29.479Z,-0.60
2023-01-26T23:08:58.441Z,-0.60
2023-01-26T23:11:28.059Z,-0.60
2023-01-26T23:13:57.976Z,-0.60
2023-01-26T23:16:25.953Z,-0.60
2023-01-26T23:18:55.360Z,-0.60
2023-01-26T23:21:23.358Z,-0.60
2023-01-26T23:23:50.982Z,-0.60
2023-01-26T23:26:18.645Z,-0.60
2023-01-26T23:28:45.986Z,-0.70
2023-01-26T23:31:15.975Z,-0.70
2023-01-26T23:33:43.726Z,-0.80
2023-01-26T23:36:13.060Z,-0.80
2023-01-26T23:38:40.399Z,-0.80
2023-01-26T23:41:12.098Z,-0.80
2023-01-26T23:43:39.387Z,-0.80
2023-01-26T23:46:08.871Z,-0.70
2023-01-26T23:48:36.621Z,-0.70
2023-01-26T23:51:10.024Z,-0.70
2023-01-26T23:53:38.198Z,-0.70
2023-01-26T23:56:13.128Z,-0.70
2023-01-26T23:58:41.423Z,-0.70
